Time;durP1;ratioP1;P1;durP2;ratioP2;P2;SDS_P1;SDS_P2;PMS_P1;PMS_P2;Temp;Humidity;BMP_temperature;BMP_pressure;BME280_temperature;BME280_humidity;BME280_pressure;Samples;Min_cycle;Max_cycle;Signal;HPM_P1;HPM_P2
2022/01/29 00:01:31;;;;;;;14.17;6.03;;;;;;;-0.97;95.65;101526.87;3498612;83;98999;-86
2022/01/29 00:06:33;;;;;;;13.20;4.20;;;;;;;-1.00;95.51;101526.88;3507702;83;99000;-86
2022/01/29 00:11:35;;;;;;;15.37;4.80;;;;;;;-1.03;95.50;101534.19;3500474;83;98674;-86
2022/01/29 00:16:37;;;;;;;15.13;4.43;;;;;;;-1.04;95.98;101529.05;3496528;83;98809;-86
2022/01/29 00:21:38;;;;;;;12.68;4.37;;;;;;;-1.04;96.41;101517.69;3504446;83;98856;-86
2022/01/29 00:26:40;;;;;;;14.00;4.63;;;;;;;-1.02;96.43;101519.59;3501987;83;99091;-86
2022/01/29 00:31:40;;;;;;;17.10;4.50;;;;;;;-1.02;96.62;101513.37;3498650;83;98972;-86
2022/01/29 00:36:41;;;;;;;16.70;4.70;;;;;;;-1.03;96.74;101507.17;3505339;83;99066;-86
2022/01/29 00:41:42;;;;;;;14.40;4.90;;;;;;;-1.03;97.07;101510.41;3494497;83;98708;-86
2022/01/29 00:46:43;;;;;;;14.30;4.67;;;;;;;-1.02;97.07;101518.77;3483419;83;98821;-86
2022/01/29 00:51:44;;;;;;;13.03;4.70;;;;;;;-1.02;97.10;101522.30;3463382;84;98917;-86
2022/01/29 00:56:45;;;;;;;15.47;3.80;;;;;;;-1.01;97.21;101503.64;3481382;83;99118;-86
2022/01/29 01:01:46;;;;;;;16.17;4.00;;;;;;;-1.02;97.44;101500.69;3469018;83;100690;-87
2022/01/29 01:06:46;;;;;;;14.27;3.80;;;;;;;-1.01;97.52;101482.56;3481831;83;99229;-86
2022/01/29 01:11:47;;;;;;;11.17;3.47;;;;;;;-0.99;97.70;101470.95;3464322;83;98582;-86
2022/01/29 01:16:48;;;;;;;13.13;3.53;;;;;;;-0.96;97.88;101471.74;3464651;83;98856;-87
2022/01/29 01:21:49;;;;;;;11.22;3.27;;;;;;;-0.94;98.00;101464.19;3475385;83;98534;-86
2022/01/29 01:26:51;;;;;;;14.97;4.20;;;;;;;-0.90;98.10;101454.42;3471585;83;99095;-86
2022/01/29 01:31:51;;;;;;;12.73;4.33;;;;;;;-0.86;98.36;101456.84;3463989;83;99201;-86
2022/01/29 01:36:57;;;;;;;13.40;3.63;;;;;;;-0.81;98.48;101459.53;3479667;83;98889;-86
2022/01/29 01:42:03;;;;;;;11.93;3.67;;;;;;;-0.74;99.02;101465.44;3479904;83;98261;-86
2022/01/29 01:46:58;;;;;;;11.18;4.30;;;;;;;-0.67;99.05;101445.13;3505997;83;99322;-87
2022/01/29 01:51:59;;;;;;;12.00;3.63;;;;;;;-0.58;99.23;101434.02;3503980;83;99069;-86
2022/01/29 01:57:00;;;;;;;18.07;4.30;;;;;;;-0.47;99.40;101421.23;3502415;83;101144;-87
2022/01/29 02:02:02;;;;;;;16.67;3.30;;;;;;;-0.37;99.40;101407.65;3498263;83;99085;-87
2022/01/29 02:07:04;;;;;;;10.77;3.00;;;;;;;-0.29;99.45;101397.04;3508700;83;98903;-87
2022/01/29 02:12:08;;;;;;;12.58;4.33;;;;;;;-0.22;99.35;101383.20;3500817;83;98898;-87
2022/01/29 02:17:09;;;;;;;12.73;3.33;;;;;;;-0.19;99.31;101383.44;3496705;83;98854;-87
2022/01/29 02:22:10;;;;;;;13.43;3.77;;;;;;;-0.16;99.17;101365.31;3491377;83;98766;-87
2022/01/29 02:27:11;;;;;;;10.73;3.00;;;;;;;-0.14;99.08;101363.12;3531629;82;98993;-86
2022/01/29 02:32:11;;;;;;;12.67;3.10;;;;;;;-0.13;99.06;101366.08;3481177;83;99158;-87
2022/01/29 02:37:13;;;;;;;15.77;3.70;;;;;;;-0.15;98.90;101358.23;3538551;82;98817;-87
2022/01/29 02:42:14;;;;;;;13.63;3.60;;;;;;;-0.16;98.90;101366.66;3491323;83;98877;-88
2022/01/29 02:47:27;;;;;;;13.10;4.27;;;;;;;-0.17;99.23;101339.32;3482329;83;30199;-87
2022/01/29 02:52:18;;;;;;;12.57;3.67;;;;;;;-0.17;99.28;101336.62;3455348;83;99156;-87
2022/01/29 02:57:18;;;;;;;15.30;3.60;;;;;;;-0.17;99.49;101331.20;3527541;82;99353;-87
2022/01/29 03:02:19;;;;;;;17.10;4.67;;;;;;;-0.15;99.86;101313.60;3477857;83;99336;-87
2022/01/29 03:07:20;;;;;;;12.97;4.20;;;;;;;-0.11;100.00;101307.07;3478346;83;99326;-87
2022/01/29 03:12:21;;;;;;;17.07;5.27;;;;;;;-0.06;100.00;101305.14;3476617;83;99485;-87
2022/01/29 03:17:22;;;;;;;14.20;3.63;;;;;;;0.00;100.00;101297.23;3472823;84;27637;-87
2022/01/29 03:22:22;;;;;;;13.37;3.23;;;;;;;0.07;100.00;101303.10;3465015;83;98718;-86
2022/01/29 03:27:23;;;;;;;19.77;4.47;;;;;;;0.15;100.00;101298.97;3465545;83;98873;-87
2022/01/29 03:32:24;;;;;;;22.67;4.03;;;;;;;0.23;100.00;101284.81;3513709;82;99041;-87
2022/01/29 03:37:25;;;;;;;18.77;5.40;;;;;;;0.30;100.00;101269.84;3435023;83;99328;-87
2022/01/29 03:42:28;;;;;;;19.00;4.17;;;;;;;0.38;100.00;101255.66;3523937;81;98846;-87
2022/01/29 03:47:29;;;;;;;15.30;4.07;;;;;;;0.47;100.00;101245.80;3495054;83;34630;-87
2022/01/29 03:52:29;;;;;;;17.55;3.85;;;;;;;0.53;100.00;101241.94;3501166;83;98669;-87
2022/01/29 03:57:30;;;;;;;23.00;3.97;;;;;;;0.60;100.00;101234.25;3500590;83;98035;-86
2022/01/29 04:02:31;;;;;;;16.53;3.80;;;;;;;0.69;100.00;101241.17;3495884;83;98931;-87
2022/01/29 04:07:32;;;;;;;25.70;4.10;;;;;;;0.77;100.00;101225.63;3508622;83;98955;-87
2022/01/29 04:12:39;;;;;;;22.50;3.92;;;;;;;0.82;100.00;101225.00;3494747;83;98809;-86
2022/01/29 04:17:35;;;;;;;16.57;3.97;;;;;;;0.89;100.00;101207.02;3505283;83;35583;-87
2022/01/29 04:22:36;;;;;;;18.57;3.80;;;;;;;0.96;100.00;101193.91;3490998;83;98828;-87
2022/01/29 04:27:41;;;;;;;25.83;5.60;;;;;;;1.01;100.00;101201.41;3492143;83;98780;-88
2022/01/29 04:37:41;;;;;;;24.17;4.37;;;;;;;1.12;100.00;101204.76;3503364;83;98845;-87
2022/01/29 04:42:42;;;;;;;14.50;4.00;;;;;;;1.18;100.00;101184.59;3498666;83;98829;-86
2022/01/29 04:47:43;;;;;;;17.33;5.17;;;;;;;1.23;100.00;101175.84;3505316;83;34831;-87
2022/01/29 04:52:44;;;;;;;32.13;5.60;;;;;;;1.27;100.00;101168.70;3480790;83;98686;-89
2022/01/29 04:57:44;;;;;;;24.43;5.20;;;;;;;1.29;100.00;101147.53;3510285;83;98724;-87
2022/01/29 05:02:55;;;;;;;17.40;4.62;;;;;;;1.34;100.00;101133.89;3491578;83;98930;-88
2022/01/29 05:07:55;;;;;;;19.42;4.75;;;;;;;1.36;100.00;101122.19;3506330;83;98903;-89
2022/01/29 05:13:03;;;;;;;19.13;5.80;;;;;;;1.38;100.00;101119.18;3487533;83;98849;-89
2022/01/29 05:28:42;;;;;;;25.32;4.62;;;;;;;1.24;100.00;101058.69;3502551;83;98755;-89
2022/01/29 05:33:42;;;;;;;23.40;5.03;;;;;;;1.35;100.00;101066.88;3494747;83;99357;-89
2022/01/29 05:38:43;;;;;;;23.23;4.57;;;;;;;1.33;100.00;101061.78;3494621;83;99203;-89
2022/01/29 05:43:44;;;;;;;19.17;4.87;;;;;;;1.17;100.00;101040.13;3492781;83;98134;-88
2022/01/29 05:48:45;;;;;;;17.87;4.40;;;;;;;1.32;100.00;101056.66;3480913;83;99173;-88
2022/01/29 05:53:46;;;;;;;24.37;5.03;;;;;;;1.33;100.00;101062.33;3488819;83;32232;-89
2022/01/29 05:58:47;;;;;;;19.00;5.00;;;;;;;1.34;100.00;101050.37;3476148;83;99076;-88
2022/01/29 06:03:48;;;;;;;23.50;6.77;;;;;;;1.32;100.00;101057.44;3486317;83;98634;-87
2022/01/29 06:08:49;;;;;;;26.13;6.50;;;;;;;1.32;100.00;101039.03;3479767;83;98991;-88
2022/01/29 06:13:50;;;;;;;20.70;4.85;;;;;;;1.31;100.00;101029.30;3486412;83;98904;-88
2022/01/29 06:18:51;;;;;;;26.90;5.25;;;;;;;1.30;100.00;101012.75;3480334;83;98724;-87
2022/01/29 06:23:51;;;;;;;24.83;5.50;;;;;;;1.29;100.00;101007.08;3487884;82;26183;-88
2022/01/29 06:28:52;;;;;;;26.83;5.53;;;;;;;1.26;100.00;101004.42;3475931;83;98634;-88
2022/01/29 06:33:53;;;;;;;24.57;6.10;;;;;;;1.23;100.00;101005.58;3489338;83;98777;-87
2022/01/29 06:38:54;;;;;;;22.60;4.67;;;;;;;1.23;100.00;100992.02;3450446;83;98848;-88
2022/01/29 06:43:55;;;;;;;21.60;6.23;;;;;;;1.20;100.00;100973.09;3485713;83;99022;-88
2022/01/29 06:48:56;;;;;;;19.17;5.27;;;;;;;1.18;100.00;100974.50;3472957;83;98720;-88
2022/01/29 06:53:57;;;;;;;17.40;5.90;;;;;;;1.14;100.00;100967.53;3475558;84;25822;-88
2022/01/29 06:58:58;;;;;;;26.20;6.27;;;;;;;1.10;100.00;100950.25;3477183;83;99152;-89
2022/01/29 07:03:58;;;;;;;27.33;5.43;;;;;;;1.10;100.00;100950.25;3467540;83;98994;-89
2022/01/29 07:08:59;;;;;;;22.40;6.10;;;;;;;1.09;100.00;100939.73;3466083;83;99314;-88
2022/01/29 07:14:03;;;;;;;20.57;6.23;;;;;;;1.09;100.00;100945.16;3480888;83;98857;-88
2022/01/29 07:19:04;;;;;;;23.47;5.77;;;;;;;1.08;100.00;100921.84;3463912;83;99023;-87
2022/01/29 07:24:06;;;;;;;32.53;7.60;;;;;;;1.07;100.00;100914.28;3482210;83;33177;-88
2022/01/29 07:29:07;;;;;;;30.30;7.13;;;;;;;1.06;100.00;100903.19;3460841;83;99014;-88
2022/01/29 07:34:08;;;;;;;25.30;7.90;;;;;;;1.07;100.00;100891.78;3461158;83;98778;-89
2022/01/29 07:39:09;;;;;;;28.97;6.53;;;;;;;1.06;100.00;100882.05;3470801;83;98863;-89
2022/01/29 07:44:11;;;;;;;29.20;6.70;;;;;;;1.06;100.00;100891.54;3453491;84;98835;-89
2022/01/29 07:49:12;;;;;;;26.07;7.87;;;;;;;1.06;100.00;100887.47;3475517;83;98692;-89
2022/01/29 07:54:12;;;;;;;30.50;7.70;;;;;;;1.05;100.00;100860.13;3489141;83;33072;-90
2022/01/29 07:59:13;;;;;;;22.40;7.70;;;;;;;1.06;100.00;100850.88;3479589;83;98759;-89
2022/01/29 08:04:14;;;;;;;25.30;7.97;;;;;;;1.04;100.00;100832.78;3483431;83;98719;-89
2022/01/29 08:09:15;;;;;;;23.87;7.33;;;;;;;1.05;100.00;100818.90;3473338;83;98879;-94
2022/01/29 08:14:16;;;;;;;32.53;11.70;;;;;;;1.06;100.00;100808.88;3483705;84;98850;-90
2022/01/29 08:19:16;;;;;;;23.73;8.33;;;;;;;1.08;100.00;100813.42;3531891;82;99040;-89
2022/01/29 08:24:17;;;;;;;23.27;8.33;;;;;;;1.08;100.00;100804.75;3505343;83;32252;-90
2022/01/29 08:29:19;;;;;;;32.33;11.30;;;;;;;1.10;100.00;100801.17;3499630;82;98745;-93
2022/01/29 08:34:21;;;;;;;21.12;8.80;;;;;;;1.12;100.00;100788.14;3524209;81;98876;-88
2022/01/29 08:39:24;;;;;;;30.70;10.88;;;;;;;1.16;100.00;100766.64;3501894;83;99290;-92
2022/01/29 08:44:25;;;;;;;30.23;11.00;;;;;;;1.17;100.00;100758.21;3497136;83;99577;-92
2022/01/29 08:49:26;;;;;;;31.50;11.70;;;;;;;1.19;100.00;100743.78;3434919;83;99072;-90
2022/01/29 08:54:27;;;;;;;25.80;10.47;;;;;;;1.20;100.00;100739.95;3473155;83;99031;-89
2022/01/29 08:59:31;;;;;;;28.53;10.53;;;;;;;1.21;100.00;100736.13;3467856;83;99114;-92
2022/01/29 09:04:32;;;;;;;26.02;11.63;;;;;;;1.19;100.00;100723.45;3478546;83;98974;-91
2022/01/29 09:09:33;;;;;;;27.20;11.57;;;;;;;1.21;100.00;100720.44;3467802;83;99124;-92
2022/01/29 09:14:34;;;;;;;20.13;11.37;;;;;;;1.22;100.00;100709.84;3479346;83;99058;-92
2022/01/29 09:19:35;;;;;;;25.23;12.43;;;;;;;1.21;100.00;100706.31;3476895;83;99111;-90
2022/01/29 09:24:36;;;;;;;21.77;12.33;;;;;;;1.20;100.00;100679.53;3483877;83;99205;-93
2022/01/29 09:29:37;;;;;;;25.57;13.17;;;;;;;1.18;100.00;100677.67;3473087;84;98666;-91
2022/01/29 09:34:38;;;;;;;29.40;13.77;;;;;;;1.17;100.00;100670.11;3482947;84;98884;-94
2022/01/29 09:39:42;;;;;;;24.05;12.75;;;;;;;1.16;100.00;100667.13;3479615;83;99051;-92
2022/01/29 09:44:43;;;;;;;25.83;12.13;;;;;;;1.16;100.00;100658.22;3461615;83;99119;-94
2022/01/29 09:49:44;;;;;;;23.77;12.03;;;;;;;1.14;100.00;100644.97;3442835;83;98916;-92
2022/01/29 09:54:48;;;;;;;27.10;12.90;;;;;;;1.13;100.00;100639.84;3451777;83;98503;-94
2022/01/29 09:59:50;;;;;;;21.65;11.78;;;;;;;1.11;100.00;100629.31;3451444;83;98990;-96
2022/01/29 10:04:55;;;;;;;23.55;11.75;;;;;;;1.10;100.00;100612.81;3468541;83;98822;-95
2022/01/29 10:09:59;;;;;;;23.50;12.10;;;;;;;1.09;100.00;100610.43;3472127;83;98822;-93
2022/01/29 10:15:08;;;;;;;26.57;13.65;;;;;;;1.08;100.00;100587.13;3476105;83;99017;-96
2022/01/29 10:20:26;;;;;;;22.93;12.33;;;;;;;1.05;100.00;100577.70;3468382;83;98522;-96
2022/01/29 10:25:33;;;;;;;23.62;12.20;;;;;;;1.01;100.00;100565.91;3513462;82;99612;-96
2022/01/29 10:30:52;;;;;;;23.00;13.10;;;;;;;1.01;100.00;100542.88;3489017;82;98861;-94
2022/01/29 10:36:06;;;;;;;23.18;12.60;;;;;;;1.02;100.00;100535.53;3499756;82;33106;-96
2022/01/29 10:41:30;;;;;;;24.20;12.53;;;;;;;1.02;100.00;100517.91;3505524;82;98918;-96
2022/01/29 10:46:32;;;;;;;26.27;15.78;;;;;;;1.02;100.00;100502.47;3473854;84;98017;-96
2022/01/29 10:51:34;;;;;;;27.07;14.58;;;;;;;1.02;100.00;100490.81;3463386;82;98713;-96
2022/01/29 10:57:03;;;;;;;25.23;14.63;;;;;;;1.03;100.00;100471.54;3486413;83;98548;-95
2022/01/29 11:02:07;;;;;;;26.62;14.25;;;;;;;1.05;100.00;100456.33;3464369;83;99135;-96
2022/01/29 11:07:15;;;;;;;24.57;12.85;;;;;;;1.06;100.00;100443.83;3529210;82;99485;-95
2022/01/29 11:12:20;;;;;;;29.67;15.43;;;;;;;1.08;100.00;100430.75;3456264;83;98480;-96
2022/01/29 11:17:29;;;;;;;26.93;14.95;;;;;;;1.12;100.00;100421.44;3464597;84;99116;-96
2022/01/29 11:22:38;;;;;;;25.37;13.38;;;;;;;1.16;100.00;100419.70;3515478;82;98096;-96
2022/01/29 11:27:41;;;;;;;26.70;13.30;;;;;;;1.21;100.00;100405.42;3451937;83;98133;-94
2022/01/29 11:32:48;;;;;;;23.40;13.25;;;;;;;1.24;100.00;100393.16;3461904;84;98180;-96
2022/01/29 11:38:11;;;;;;;25.25;13.98;;;;;;;1.27;100.00;100382.47;3511753;82;98533;-95
2022/01/29 11:43:16;;;;;;;24.07;13.72;;;;;;;1.30;100.00;100379.14;3448058;83;99038;-96
2022/01/29 11:48:38;;;;;;;23.67;13.03;;;;;;;1.34;100.00;100358.42;3462009;84;25843;-96
2022/01/29 11:53:52;;;;;;;25.08;12.80;;;;;;;1.40;100.00;100331.94;3464575;83;98613;-96
2022/01/29 11:59:23;;;;;;;24.98;14.53;;;;;;;1.45;100.00;100318.23;3458993;83;99120;-95
2022/01/29 12:04:54;;;;;;;29.32;15.75;;;;;;;1.51;100.00;100292.00;3466821;84;98921;-95
2022/01/29 12:10:14;;;;;;;25.40;13.83;;;;;;;1.58;100.00;100294.23;3524007;82;98564;-96
2022/01/29 12:15:23;;;;;;;30.37;15.32;;;;;;;1.63;100.00;100276.41;3529237;82;99076;-95
2022/01/29 12:20:29;;;;;;;22.85;13.40;;;;;;;1.67;100.00;100255.13;3507241;81;98918;-95
2022/01/29 12:25:33;;;;;;;25.23;14.30;;;;;;;1.76;100.00;100217.13;3429549;84;98177;-96
2022/01/29 12:30:38;;;;;;;25.00;13.65;;;;;;;1.76;100.00;100217.13;3536387;82;98462;-96
2022/01/29 12:35:49;;;;;;;22.27;12.15;;;;;;;1.83;100.00;100191.64;3460827;84;98756;-95
2022/01/29 12:41:06;;;;;;;21.03;12.40;;;;;;;1.88;100.00;100171.92;3471474;83;98053;-95
2022/01/29 12:46:17;;;;;;;23.47;13.72;;;;;;;1.94;100.00;100154.88;3489909;83;98068;-95
2022/01/29 12:51:18;;;;;;;24.67;13.43;;;;;;;1.98;100.00;100139.55;3477019;83;98944;-95
2022/01/29 12:56:19;;;;;;;26.00;13.67;;;;;;;2.05;100.00;100124.89;3506533;83;99020;-93
2022/01/29 13:01:24;;;;;;;25.07;13.53;;;;;;;2.10;100.00;100113.30;3504420;83;99071;-96
2022/01/29 13:06:30;;;;;;;21.23;11.48;;;;;;;2.19;100.00;100103.75;3536644;82;33035;-96
2022/01/29 13:11:32;;;;;;;22.85;11.97;;;;;;;2.26;100.00;100091.80;3556653;82;98654;-95
2022/01/29 13:16:32;;;;;;;19.87;11.15;;;;;;;2.32;100.00;100078.25;3574047;82;98037;-95
2022/01/29 13:21:36;;;;;;;25.77;11.63;;;;;;;2.41;100.00;100046.41;3546543;82;99163;-94
2022/01/29 13:26:37;;;;;;;21.87;11.65;;;;;;;2.47;100.00;100033.63;3585042;82;98283;-96
2022/01/29 13:31:48;;;;;;;21.60;11.30;;;;;;;2.56;100.00;100018.65;3555309;82;99020;-95
2022/01/29 13:36:50;;;;;;;21.45;11.50;;;;;;;2.63;100.00;100010.74;3543691;82;99030;-96
2022/01/29 13:42:11;;;;;;;24.67;13.08;;;;;;;2.70;100.00;100010.43;3566585;82;98469;-96
2022/01/29 13:47:12;;;;;;;20.35;11.05;;;;;;;2.77;100.00;99995.72;3572715;82;98003;-94
2022/01/29 13:52:22;;;;;;;19.70;10.97;;;;;;;2.85;100.00;99977.16;3521760;82;98728;-95
2022/01/29 13:57:23;;;;;;;19.25;11.20;;;;;;;2.93;100.00;99986.36;3518016;82;98910;-95
2022/01/29 14:02:25;;;;;;;20.88;11.15;;;;;;;3.02;100.00;99982.98;3479988;82;98911;-94
2022/01/29 14:07:30;;;;;;;23.00;11.43;;;;;;;3.11;100.00;99970.09;3529957;82;98077;-95
2022/01/29 14:12:33;;;;;;;20.40;11.30;;;;;;;3.23;100.00;99960.00;3463725;82;99315;-94
2022/01/29 14:17:36;;;;;;;19.82;10.00;;;;;;;3.33;100.00;99950.03;3518839;82;97936;-94
2022/01/29 14:22:42;;;;;;;21.27;11.45;;;;;;;3.46;100.00;99930.42;3510035;82;99213;-96
2022/01/29 14:27:43;;;;;;;21.13;11.67;;;;;;;3.54;100.00;99928.13;3524157;82;25879;-93
2022/01/29 14:32:44;;;;;;;22.50;12.37;;;;;;;3.62;100.00;99921.79;3518629;82;98899;-96
2022/01/29 14:37:45;;;;;;;18.23;10.73;;;;;;;3.68;100.00;99905.45;3519399;82;98104;-93
2022/01/29 14:42:46;;;;;;;18.03;10.57;;;;;;;3.77;100.00;99878.91;3539418;81;98326;-93
2022/01/29 14:47:50;;;;;;;19.17;10.75;;;;;;;3.88;100.00;99868.52;3524011;82;98783;-96
2022/01/29 14:52:53;;;;;;;18.32;10.28;;;;;;;4.01;100.00;99848.86;3471050;82;97906;-96
2022/01/29 14:57:53;;;;;;;18.17;9.63;;;;;;;4.12;100.00;99826.23;3525989;82;98399;-96
2022/01/29 15:03:02;;;;;;;18.13;10.33;;;;;;;4.25;100.00;99811.40;3543490;81;98227;-96
2022/01/29 15:08:05;;;;;;;20.32;10.98;;;;;;;4.37;100.00;99796.92;3540598;82;98843;-95
2022/01/29 15:13:06;;;;;;;19.87;10.50;;;;;;;4.47;100.00;99786.88;3464116;82;97494;-96
2022/01/29 15:18:08;;;;;;;22.13;10.80;;;;;;;4.55;100.00;99774.98;3527668;82;98721;-96
2022/01/29 15:23:08;;;;;;;20.48;10.35;;;;;;;4.64;100.00;99771.52;3522458;82;99157;-91
2022/01/29 15:28:09;;;;;;;20.23;11.40;;;;;;;4.70;100.00;99774.96;3526875;82;98040;-91
2022/01/29 15:33:12;;;;;;;25.50;14.20;;;;;;;4.76;100.00;99748.24;3508855;82;98308;-95
2022/01/29 15:38:14;;;;;;;26.57;14.43;;;;;;;4.82;100.00;99724.45;3531400;82;98875;-91
2022/01/29 15:43:15;;;;;;;29.37;14.80;;;;;;;4.89;100.00;99694.61;3521941;82;98237;-93
2022/01/29 15:48:17;;;;;;;26.13;13.67;;;;;;;4.93;100.00;99687.30;3513802;82;98484;-94
2022/01/29 15:53:18;;;;;;;24.17;14.07;;;;;;;5.01;100.00;99692.31;3482583;83;98663;-96
2022/01/29 15:58:21;;;;;;;24.63;14.80;;;;;;;5.05;100.00;99674.09;3486812;83;98860;-95
2022/01/29 16:03:24;;;;;;;27.22;15.85;;;;;;;5.10;100.00;99658.25;3487825;83;98820;-96
2022/01/29 16:08:25;;;;;;;22.80;13.60;;;;;;;5.18;100.00;99666.00;3478026;83;98867;-95
2022/01/29 16:13:28;;;;;;;23.33;13.77;;;;;;;5.24;100.00;99653.66;3527148;82;98917;-94
2022/01/29 16:18:35;;;;;;;27.80;14.70;;;;;;;5.29;100.00;99641.09;3464174;83;98725;-92
2022/01/29 16:23:37;;;;;;;22.82;13.72;;;;;;;5.32;100.00;99637.63;3472935;83;98652;-95
2022/01/29 16:28:40;;;;;;;25.75;14.13;;;;;;;5.38;100.00;99619.24;3440355;84;98843;-95
2022/01/29 16:33:41;;;;;;;23.60;12.53;;;;;;;5.44;100.00;99604.15;3458385;84;98908;-93
2022/01/29 16:38:42;;;;;;;20.83;11.90;;;;;;;5.47;100.00;99588.99;3499462;83;99007;-96
2022/01/29 16:43:45;;;;;;;18.70;11.63;;;;;;;5.53;100.00;99580.16;3525055;81;97981;-96
2022/01/29 16:48:46;;;;;;;19.70;11.10;;;;;;;5.58;100.00;99569.50;3513611;82;98933;-94
2022/01/29 16:53:47;;;;;;;20.10;11.73;;;;;;;5.61;100.00;99569.55;3518604;82;98923;-95
2022/01/29 16:58:48;;;;;;;19.33;12.43;;;;;;;5.63;100.00;99557.69;3499803;82;98587;-93
2022/01/29 17:03:51;;;;;;;21.17;11.93;;;;;;;5.68;100.00;99538.87;3471359;83;98123;-94
2022/01/29 17:08:52;;;;;;;19.17;9.90;;;;;;;5.70;100.00;99553.73;3473384;83;98967;-91
2022/01/29 17:13:58;;;;;;;18.50;9.53;;;;;;;5.72;100.00;99530.94;3522914;82;98797;-96
2022/01/29 17:19:01;;;;;;;19.87;9.60;;;;;;;5.76;100.00;99527.69;3486772;83;98510;-93
2022/01/29 17:24:03;;;;;;;14.55;8.33;;;;;;;5.79;100.00;99508.43;3522907;82;97751;-95
2022/01/29 17:29:04;;;;;;;14.57;8.00;;;;;;;5.82;100.00;99489.40;3531596;82;98570;-94
2022/01/29 17:34:09;;;;;;;17.47;8.90;;;;;;;5.85;100.00;99461.94;3497592;82;98324;-93
2022/01/29 17:39:10;;;;;;;14.40;7.90;;;;;;;5.86;100.00;99427.45;3531160;81;98319;-94
2022/01/29 17:44:10;;;;;;;11.70;7.20;;;;;;;5.89;100.00;99426.69;3525331;82;98780;-95
2022/01/29 17:49:12;;;;;;;14.90;8.40;;;;;;;5.93;100.00;99402.16;3531365;81;98294;-96
2022/01/29 17:54:14;;;;;;;23.00;11.27;;;;;;;5.94;100.00;99397.70;3481992;83;98378;-94
2022/01/29 17:59:15;;;;;;;21.43;11.73;;;;;;;5.98;100.00;99393.64;3485741;83;98757;-96
2022/01/29 18:04:16;;;;;;;23.13;11.23;;;;;;;6.00;100.00;99367.54;3531663;81;98069;-96
2022/01/29 18:09:18;;;;;;;24.37;10.73;;;;;;;6.02;100.00;99348.86;3470640;83;98892;-96
2022/01/29 18:14:18;;;;;;;27.90;13.20;;;;;;;6.06;100.00;99330.54;3475530;83;99318;-96
2022/01/29 18:19:31;;;;;;;20.50;11.50;;;;;;;6.08;100.00;99329.61;3526132;82;98849;-96
2022/01/29 18:24:25;;;;;;;15.23;8.78;;;;;;;6.11;100.00;99329.45;3507954;82;97624;-95
2022/01/29 18:29:28;;;;;;;16.77;9.20;;;;;;;6.13;100.00;99307.99;3517526;81;98727;-95
2022/01/29 18:34:28;;;;;;;15.18;8.70;;;;;;;6.15;100.00;99296.90;3472751;84;98726;-92
2022/01/29 18:39:30;;;;;;;14.20;8.27;;;;;;;6.21;100.00;99272.17;3526609;81;98254;-96
2022/01/29 18:44:32;;;;;;;12.20;7.57;;;;;;;6.30;100.00;99237.72;3477705;83;97813;-93
2022/01/29 18:49:33;;;;;;;12.23;7.25;;;;;;;6.30;100.00;99237.72;3541335;82;98698;-96
2022/01/29 18:54:34;;;;;;;12.83;7.57;;;;;;;6.32;100.00;99240.28;3546979;81;31167;-96
2022/01/29 18:59:38;;;;;;;14.30;7.47;;;;;;;6.33;100.00;99234.25;3534927;81;99180;-96
2022/01/29 19:04:38;;;;;;;12.58;7.35;;;;;;;6.40;100.00;99238.39;3543454;81;98365;-96
2022/01/29 19:09:39;;;;;;;13.47;6.90;;;;;;;6.42;100.00;99227.29;3525417;82;98778;-94
2022/01/29 19:14:44;;;;;;;13.13;6.50;;;;;;;6.42;100.00;99225.13;3467699;84;98437;-96
2022/01/29 19:19:45;;;;;;;11.08;5.97;;;;;;;6.50;100.00;99168.78;3481611;83;98662;-94
2022/01/29 19:24:46;;;;;;;11.10;5.63;;;;;;;6.50;100.00;99168.78;3488312;83;31525;-96
2022/01/29 19:29:46;;;;;;;9.30;4.70;;;;;;;6.56;100.00;99178.22;3525948;82;98367;-95
2022/01/29 19:34:48;;;;;;;10.37;5.53;;;;;;;6.62;100.00;99162.23;3527811;81;98466;-93
2022/01/29 19:39:48;;;;;;;9.43;4.35;;;;;;;6.67;100.00;99153.67;3423153;81;98382;-95
2022/01/29 19:44:51;;;;;;;9.93;4.50;;;;;;;6.73;100.00;99131.06;3476707;83;98131;-96
2022/01/29 19:49:53;;;;;;;8.40;4.00;;;;;;;6.80;100.00;99132.47;3475270;83;98602;-96
2022/01/29 19:54:54;;;;;;;8.93;4.60;;;;;;;6.83;100.00;99115.88;3456193;84;32015;-91
2022/01/29 19:59:59;;;;;;;9.73;4.10;;;;;;;6.89;100.00;99117.87;3450838;83;98026;-96
2022/01/29 20:05:05;;;;;;;9.58;4.67;;;;;;;6.94;100.00;99110.67;3478066;83;98311;-95
2022/01/29 20:10:08;;;;;;;9.78;3.83;;;;;;;6.97;100.00;99105.78;3467781;83;98543;-92
2022/01/29 20:15:10;;;;;;;8.80;4.30;;;;;;;7.02;100.00;99073.16;3478511;83;98648;-95
2022/01/29 20:20:14;;;;;;;10.63;4.78;;;;;;;7.03;100.00;99071.42;3513863;81;97640;-93
2022/01/29 20:25:15;;;;;;;9.15;4.15;;;;;;;7.05;100.00;99064.20;3530732;82;33095;-96
2022/01/29 20:30:19;;;;;;;11.83;5.37;;;;;;;7.08;100.00;99058.73;3529367;80;98226;-95
2022/01/29 20:35:22;;;;;;;8.65;4.12;;;;;;;7.11;100.00;99042.13;3498256;81;98329;-96
2022/01/29 20:40:23;;;;;;;8.18;3.92;;;;;;;7.15;100.00;99011.47;3490555;81;98605;-91
2022/01/29 20:45:24;;;;;;;13.10;4.50;;;;;;;7.20;100.00;99013.23;3521328;81;98585;-90
2022/01/29 20:50:26;;;;;;;12.67;4.70;;;;;;;7.23;100.00;99014.41;3528054;82;98699;-92
2022/01/29 20:55:30;;;;;;;8.77;3.60;;;;;;;7.23;100.00;99004.83;3533616;82;31747;-92
2022/01/29 21:00:34;;;;;;;8.33;3.52;;;;;;;7.21;100.00;98988.80;3547579;81;98544;-96
2022/01/29 21:05:36;;;;;;;7.95;2.98;;;;;;;7.22;100.00;98978.07;3551234;82;98328;-90
2022/01/29 21:10:37;;;;;;;10.35;3.22;;;;;;;7.24;100.00;98974.92;3489882;83;98229;-96
2022/01/29 21:15:38;;;;;;;11.73;2.87;;;;;;;7.29;100.00;98978.07;3493025;83;98669;-94
2022/01/29 21:20:41;;;;;;;7.07;2.40;;;;;;;7.38;100.00;98975.74;3505128;82;99205;-93
2022/01/29 21:25:45;;;;;;;6.12;2.33;;;;;;;7.46;100.00;98965.55;3515352;83;99128;-95
2022/01/29 21:30:47;;;;;;;4.85;2.22;;;;;;;7.51;100.00;98965.95;3549409;82;98409;-91
2022/01/29 21:35:48;;;;;;;6.95;1.80;;;;;;;7.58;100.00;98962.44;3562712;82;97467;-95
2022/01/29 21:40:49;;;;;;;6.87;2.90;;;;;;;7.63;100.00;98968.30;3552070;82;98233;-96
2022/01/29 21:45:50;;;;;;;7.73;1.80;;;;;;;7.59;100.00;98990.77;3553145;82;98508;-92
2022/01/29 21:50:52;;;;;;;6.90;2.17;;;;;;;7.49;100.00;98979.27;3507537;82;98138;-95
2022/01/29 21:55:53;;;;;;;7.83;1.63;;;;;;;7.39;100.00;98988.82;3540285;80;98462;-96
2022/01/29 22:00:54;;;;;;;8.70;2.73;;;;;;;7.35;100.00;99013.45;3525736;81;98033;-95
2022/01/29 22:05:56;;;;;;;8.00;1.47;;;;;;;7.11;100.00;99044.88;3537704;82;98444;-96
2022/01/29 22:10:57;;;;;;;5.83;1.90;;;;;;;6.82;100.00;99005.71;3536707;81;98223;-96
2022/01/29 22:16:00;;;;;;;9.57;3.07;;;;;;;6.54;100.00;99017.14;3539981;81;98920;-95
2022/01/29 22:21:01;;;;;;;11.90;2.10;;;;;;;6.38;100.00;99024.87;3484766;83;98192;-95
2022/01/29 22:26:01;;;;;;;14.63;2.67;;;;;;;6.20;100.00;99004.85;3465275;84;98796;-92
2022/01/29 22:31:07;;;;;;;16.03;2.80;;;;;;;6.08;100.00;99014.16;3481450;83;98655;-93
2022/01/29 22:36:10;;;;;;;14.90;3.95;;;;;;;6.00;100.00;99038.48;3548881;81;97714;-96
2022/01/29 22:41:15;;;;;;;19.80;3.00;;;;;;;5.97;100.00;99050.75;3542177;82;98594;-96
2022/01/29 22:46:30;;;;;;;16.97;3.47;;;;;;;5.96;100.00;99073.76;3529385;82;97833;-94
2022/01/29 22:51:36;;;;;;;13.62;2.67;;;;;;;5.90;100.00;99083.47;3511037;82;99066;-95
2022/01/29 22:56:36;;;;;;;17.07;4.37;;;;;;;5.80;100.00;99084.16;3521324;81;99106;-93
2022/01/29 23:01:37;;;;;;;10.35;2.05;;;;;;;5.66;100.00;99088.89;3522804;82;99035;-95
2022/01/29 23:06:39;;;;;;;14.73;2.67;;;;;;;5.55;100.00;99086.64;3484421;83;31428;-96
2022/01/29 23:11:44;;;;;;;16.05;3.25;;;;;;;5.42;100.00;99104.45;3456248;81;98985;-96
2022/01/29 23:17:00;;;;;;;15.20;3.65;;;;;;;5.34;100.00;99100.06;3442262;83;98323;-92
2022/01/29 23:22:05;;;;;;;17.60;3.22;;;;;;;5.26;100.00;99109.34;3493025;82;98408;-94
2022/01/29 23:27:12;;;;;;;20.68;4.65;;;;;;;5.21;100.00;99123.31;3455247;82;98738;-92
2022/01/29 23:32:18;;;;;;;19.80;3.23;;;;;;;5.20;100.00;99122.31;3515223;82;98725;-90